sensor_id;sensor_type;location;lat;lon;timestamp;P1;durP1;ratioP1;P2;durP2;ratioP2
15454;SDS011;21057;51.024;7.540;2023-07-29T00:01:58;21.60;;;20.30;;
15454;SDS011;21057;51.024;7.540;2023-07-29T00:04:24;21.23;;;20.02;;
15454;SDS011;21057;51.024;7.540;2023-07-29T00:06:51;21.83;;;20.52;;
15454;SDS011;21057;51.024;7.540;2023-07-29T00:09:18;20.63;;;19.52;;
15454;SDS011;21057;51.024;7.540;2023-07-29T00:11:46;21.13;;;19.90;;
15454;SDS011;21057;51.024;7.540;2023-07-29T00:14:13;21.52;;;20.13;;
15454;SDS011;21057;51.024;7.540;2023-07-29T00:16:40;21.73;;;20.42;;
15454;SDS011;21057;51.024;7.540;2023-07-29T00:19:07;22.35;;;20.90;;
15454;SDS011;21057;51.024;7.540;2023-07-29T00:21:34;22.27;;;20.88;;
15454;SDS011;21057;51.024;7.540;2023-07-29T00:24:01;22.23;;;20.85;;
15454;SDS011;21057;51.024;7.540;2023-07-29T00:26:28;22.30;;;20.67;;
15454;SDS011;21057;51.024;7.540;2023-07-29T00:28:56;22.17;;;20.55;;
15454;SDS011;21057;51.024;7.540;2023-07-29T00:31:23;21.83;;;20.58;;
15454;SDS011;21057;51.024;7.540;2023-07-29T00:33:50;22.00;;;20.67;;
15454;SDS011;21057;51.024;7.540;2023-07-29T00:36:18;21.25;;;20.02;;
15454;SDS011;21057;51.024;7.540;2023-07-29T00:38:45;21.88;;;20.58;;
15454;SDS011;21057;51.024;7.540;2023-07-29T00:41:12;22.05;;;20.75;;
15454;SDS011;21057;51.024;7.540;2023-07-29T00:43:41;21.98;;;20.67;;
15454;SDS011;21057;51.024;7.540;2023-07-29T00:46:09;22.23;;;20.73;;
15454;SDS011;21057;51.024;7.540;2023-07-29T00:48:38;21.65;;;20.35;;
15454;SDS011;21057;51.024;7.540;2023-07-29T00:51:05;21.75;;;20.35;;
15454;SDS011;21057;51.024;7.540;2023-07-29T00:53:32;22.10;;;20.80;;
15454;SDS011;21057;51.024;7.540;2023-07-29T00:55:58;22.55;;;21.15;;
15454;SDS011;21057;51.024;7.540;2023-07-29T00:58:26;25.08;;;23.27;;
15454;SDS011;21057;51.024;7.540;2023-07-29T01:00:53;23.95;;;22.55;;
15454;SDS011;21057;51.024;7.540;2023-07-29T01:03:22;23.27;;;21.88;;
15454;SDS011;21057;51.024;7.540;2023-07-29T01:05:50;23.80;;;22.40;;
15454;SDS011;21057;51.024;7.540;2023-07-29T01:08:28;23.38;;;21.77;;
15454;SDS011;21057;51.024;7.540;2023-07-29T01:11:02;22.85;;;21.45;;
15454;SDS011;21057;51.024;7.540;2023-07-29T01:13:40;22.45;;;21.05;;
15454;SDS011;21057;51.024;7.540;2023-07-29T01:16:15;22.02;;;20.77;;
15454;SDS011;21057;51.024;7.540;2023-07-29T01:18:48;21.80;;;20.35;;
15454;SDS011;21057;51.024;7.540;2023-07-29T01:21:19;22.30;;;20.90;;
15454;SDS011;21057;51.024;7.540;2023-07-29T01:23:48;22.00;;;20.70;;
15454;SDS011;21057;51.024;7.540;2023-07-29T01:26:18;22.73;;;21.33;;
15454;SDS011;21057;51.024;7.540;2023-07-29T01:28:45;22.40;;;21.10;;
15454;SDS011;21057;51.024;7.540;2023-07-29T01:31:13;22.63;;;21.23;;
15454;SDS011;21057;51.024;7.540;2023-07-29T01:33:47;22.67;;;21.27;;
15454;SDS011;21057;51.024;7.540;2023-07-29T01:36:20;22.00;;;20.60;;
15454;SDS011;21057;51.024;7.540;2023-07-29T01:38:51;24.00;;;22.60;;
15454;SDS011;21057;51.024;7.540;2023-07-29T01:41:19;23.50;;;21.85;;
15454;SDS011;21057;51.024;7.540;2023-07-29T01:43:47;23.83;;;21.95;;
15454;SDS011;21057;51.024;7.540;2023-07-29T01:46:14;22.80;;;21.50;;
15454;SDS011;21057;51.024;7.540;2023-07-29T01:48:41;23.92;;;22.42;;
15454;SDS011;21057;51.024;7.540;2023-07-29T01:51:10;23.77;;;22.17;;
15454;SDS011;21057;51.024;7.540;2023-07-29T01:53:38;23.10;;;21.75;;
15454;SDS011;21057;51.024;7.540;2023-07-29T01:56:06;22.55;;;21.15;;
15454;SDS011;21057;51.024;7.540;2023-07-29T01:58:33;22.42;;;20.92;;
15454;SDS011;21057;51.024;7.540;2023-07-29T02:00:59;21.90;;;20.50;;
15454;SDS011;21057;51.024;7.540;2023-07-29T02:03:26;22.10;;;20.80;;
15454;SDS011;21057;51.024;7.540;2023-07-29T02:05:53;22.20;;;20.90;;
15454;SDS011;21057;51.024;7.540;2023-07-29T02:08:20;22.60;;;21.27;;
15454;SDS011;21057;51.024;7.540;2023-07-29T02:10:46;22.60;;;21.10;;
15454;SDS011;21057;51.024;7.540;2023-07-29T02:13:15;22.63;;;20.90;;
15454;SDS011;21057;51.024;7.540;2023-07-29T02:15:42;22.40;;;21.00;;
15454;SDS011;21057;51.024;7.540;2023-07-29T02:18:09;21.73;;;20.42;;
15454;SDS011;21057;51.024;7.540;2023-07-29T02:20:36;22.90;;;21.38;;
15454;SDS011;21057;51.024;7.540;2023-07-29T02:23:02;21.50;;;20.20;;
15454;SDS011;21057;51.024;7.540;2023-07-29T02:25:29;22.73;;;21.42;;
15454;SDS011;21057;51.024;7.540;2023-07-29T02:27:56;22.85;;;21.35;;
15454;SDS011;21057;51.024;7.540;2023-07-29T02:30:24;22.15;;;20.75;;
15454;SDS011;21057;51.024;7.540;2023-07-29T02:32:51;22.17;;;20.88;;
15454;SDS011;21057;51.024;7.540;2023-07-29T02:35:18;23.45;;;21.65;;
15454;SDS011;21057;51.024;7.540;2023-07-29T02:37:45;21.95;;;20.65;;
15454;SDS011;21057;51.024;7.540;2023-07-29T02:40:12;22.40;;;21.10;;
15454;SDS011;21057;51.024;7.540;2023-07-29T02:42:39;21.83;;;20.55;;
15454;SDS011;21057;51.024;7.540;2023-07-29T02:45:06;22.50;;;21.10;;
15454;SDS011;21057;51.024;7.540;2023-07-29T02:47:37;22.75;;;21.33;;
15454;SDS011;21057;51.024;7.540;2023-07-29T02:50:04;22.33;;;21.02;;
15454;SDS011;21057;51.024;7.540;2023-07-29T02:52:31;21.35;;;20.15;;
15454;SDS011;21057;51.024;7.540;2023-07-29T02:54:58;21.30;;;20.00;;
15454;SDS011;21057;51.024;7.540;2023-07-29T02:57:25;23.02;;;21.70;;
15454;SDS011;21057;51.024;7.540;2023-07-29T02:59:52;24.02;;;22.40;;
15454;SDS011;21057;51.024;7.540;2023-07-29T03:02:18;22.05;;;20.65;;
15454;SDS011;21057;51.024;7.540;2023-07-29T03:04:48;22.77;;;21.25;;
15454;SDS011;21057;51.024;7.540;2023-07-29T03:07:15;23.63;;;22.23;;
15454;SDS011;21057;51.024;7.540;2023-07-29T03:09:42;22.55;;;21.15;;
15454;SDS011;21057;51.024;7.540;2023-07-29T03:12:10;23.05;;;21.42;;
15454;SDS011;21057;51.024;7.540;2023-07-29T03:14:36;22.75;;;21.35;;
15454;SDS011;21057;51.024;7.540;2023-07-29T03:17:03;22.17;;;20.83;;
15454;SDS011;21057;51.024;7.540;2023-07-29T03:19:31;21.75;;;20.45;;
15454;SDS011;21057;51.024;7.540;2023-07-29T03:21:59;21.67;;;20.33;;
15454;SDS011;21057;51.024;7.540;2023-07-29T03:24:26;20.98;;;19.77;;
15454;SDS011;21057;51.024;7.540;2023-07-29T03:26:53;20.92;;;19.58;;
15454;SDS011;21057;51.024;7.540;2023-07-29T03:29:20;21.52;;;20.23;;
15454;SDS011;21057;51.024;7.540;2023-07-29T03:31:47;21.17;;;19.98;;
15454;SDS011;21057;51.024;7.540;2023-07-29T03:34:14;21.25;;;19.95;;
15454;SDS011;21057;51.024;7.540;2023-07-29T03:36:41;20.65;;;19.45;;
15454;SDS011;21057;51.024;7.540;2023-07-29T03:39:09;21.33;;;19.92;;
15454;SDS011;21057;51.024;7.540;2023-07-29T03:41:36;21.25;;;19.95;;
15454;SDS011;21057;51.024;7.540;2023-07-29T03:44:03;20.20;;;19.00;;
15454;SDS011;21057;51.024;7.540;2023-07-29T03:46:30;21.08;;;19.88;;
15454;SDS011;21057;51.024;7.540;2023-07-29T03:48:57;20.83;;;19.55;;
15454;SDS011;21057;51.024;7.540;2023-07-29T03:51:24;22.20;;;21.00;;
15454;SDS011;21057;51.024;7.540;2023-07-29T03:53:51;23.75;;;22.35;;
15454;SDS011;21057;51.024;7.540;2023-07-29T03:56:19;22.20;;;21.00;;
15454;SDS011;21057;51.024;7.540;2023-07-29T03:58:46;22.77;;;21.48;;
15454;SDS011;21057;51.024;7.540;2023-07-29T04:01:13;23.02;;;21.73;;
15454;SDS011;21057;51.024;7.540;2023-07-29T04:03:40;21.55;;;20.25;;
15454;SDS011;21057;51.024;7.540;2023-07-29T04:06:06;21.08;;;19.88;;
15454;SDS011;21057;51.024;7.540;2023-07-29T04:08:33;20.38;;;19.27;;
15454;SDS011;21057;51.024;7.540;2023-07-29T04:11:00;20.63;;;19.42;;
15454;SDS011;21057;51.024;7.540;2023-07-29T04:13:28;21.38;;;20.17;;
15454;SDS011;21057;51.024;7.540;2023-07-29T04:15:55;21.58;;;20.35;;
15454;SDS011;21057;51.024;7.540;2023-07-29T04:18:22;22.20;;;20.90;;
15454;SDS011;21057;51.024;7.540;2023-07-29T04:20:49;19.95;;;18.77;;
15454;SDS011;21057;51.024;7.540;2023-07-29T04:23:16;20.30;;;19.10;;
15454;SDS011;21057;51.024;7.540;2023-07-29T04:25:42;20.67;;;19.48;;
15454;SDS011;21057;51.024;7.540;2023-07-29T04:28:09;22.77;;;21.42;;
15454;SDS011;21057;51.024;7.540;2023-07-29T04:30:37;23.45;;;21.95;;
15454;SDS011;21057;51.024;7.540;2023-07-29T04:33:04;22.60;;;21.10;;
15454;SDS011;21057;51.024;7.540;2023-07-29T04:35:31;24.25;;;22.55;;
15454;SDS011;21057;51.024;7.540;2023-07-29T04:37:58;23.38;;;21.88;;
15454;SDS011;21057;51.024;7.540;2023-07-29T04:40:24;23.52;;;21.85;;
15454;SDS011;21057;51.024;7.540;2023-07-29T04:42:51;23.40;;;21.60;;
15454;SDS011;21057;51.024;7.540;2023-07-29T04:45:18;23.92;;;22.10;;
15454;SDS011;21057;51.024;7.540;2023-07-29T04:47:46;23.65;;;21.98;;
15454;SDS011;21057;51.024;7.540;2023-07-29T04:50:13;25.42;;;23.27;;
15454;SDS011;21057;51.024;7.540;2023-07-29T04:52:40;21.75;;;20.20;;
15454;SDS011;21057;51.024;7.540;2023-07-29T04:55:07;23.05;;;21.40;;
15454;SDS011;21057;51.024;7.540;2023-07-29T04:57:34;23.02;;;21.33;;
15454;SDS011;21057;51.024;7.540;2023-07-29T05:00:01;22.35;;;20.73;;
15454;SDS011;21057;51.024;7.540;2023-07-29T05:02:29;23.08;;;21.45;;
15454;SDS011;21057;51.024;7.540;2023-07-29T05:04:57;23.83;;;21.92;;
15454;SDS011;21057;51.024;7.540;2023-07-29T05:07:23;23.70;;;21.80;;
15454;SDS011;21057;51.024;7.540;2023-07-29T05:09:50;23.63;;;21.77;;
15454;SDS011;21057;51.024;7.540;2023-07-29T05:12:17;23.70;;;21.95;;
15454;SDS011;21057;51.024;7.540;2023-07-29T05:14:44;22.90;;;21.27;;
15454;SDS011;21057;51.024;7.540;2023-07-29T05:17:11;23.63;;;21.73;;
15454;SDS011;21057;51.024;7.540;2023-07-29T05:19:37;23.33;;;21.63;;
15454;SDS011;21057;51.024;7.540;2023-07-29T05:22:05;22.90;;;21.30;;
15454;SDS011;21057;51.024;7.540;2023-07-29T05:24:32;24.77;;;22.65;;
15454;SDS011;21057;51.024;7.540;2023-07-29T05:26:59;23.42;;;21.65;;
15454;SDS011;21057;51.024;7.540;2023-07-29T05:29:26;25.48;;;23.48;;
15454;SDS011;21057;51.024;7.540;2023-07-29T05:31:53;25.02;;;23.05;;
15454;SDS011;21057;51.024;7.540;2023-07-29T05:34:19;25.00;;;23.00;;
15454;SDS011;21057;51.024;7.540;2023-07-29T05:36:46;24.95;;;22.95;;
15454;SDS011;21057;51.024;7.540;2023-07-29T05:39:14;26.02;;;23.92;;
15454;SDS011;21057;51.024;7.540;2023-07-29T05:41:41;26.05;;;23.73;;
15454;SDS011;21057;51.024;7.540;2023-07-29T05:44:08;25.88;;;23.70;;
15454;SDS011;21057;51.024;7.540;2023-07-29T05:46:35;26.73;;;24.60;;
15454;SDS011;21057;51.024;7.540;2023-07-29T05:49:01;24.75;;;22.75;;
15454;SDS011;21057;51.024;7.540;2023-07-29T05:51:28;24.08;;;22.20;;
15454;SDS011;21057;51.024;7.540;2023-07-29T05:53:55;24.45;;;22.35;;
15454;SDS011;21057;51.024;7.540;2023-07-29T05:56:23;25.08;;;23.15;;
15454;SDS011;21057;51.024;7.540;2023-07-29T05:58:50;24.38;;;22.38;;
15454;SDS011;21057;51.024;7.540;2023-07-29T06:01:17;23.48;;;21.55;;
15454;SDS011;21057;51.024;7.540;2023-07-29T06:03:46;25.08;;;23.00;;
15454;SDS011;21057;51.024;7.540;2023-07-29T06:06:13;24.58;;;22.60;;
15454;SDS011;21057;51.024;7.540;2023-07-29T06:08:40;25.30;;;23.38;;
15454;SDS011;21057;51.024;7.540;2023-07-29T06:11:06;24.95;;;23.00;;
15454;SDS011;21057;51.024;7.540;2023-07-29T06:13:35;26.00;;;23.98;;
15454;SDS011;21057;51.024;7.540;2023-07-29T06:16:01;26.95;;;24.88;;
15454;SDS011;21057;51.024;7.540;2023-07-29T06:18:29;26.42;;;24.05;;
15454;SDS011;21057;51.024;7.540;2023-07-29T06:20:55;27.13;;;25.02;;
15454;SDS011;21057;51.024;7.540;2023-07-29T06:23:23;26.95;;;24.98;;
15454;SDS011;21057;51.024;7.540;2023-07-29T06:25:49;26.55;;;24.17;;
15454;SDS011;21057;51.024;7.540;2023-07-29T06:28:16;26.08;;;24.08;;
15454;SDS011;21057;51.024;7.540;2023-07-29T06:30:44;25.17;;;23.13;;
15454;SDS011;21057;51.024;7.540;2023-07-29T06:33:11;26.17;;;23.70;;
15454;SDS011;21057;51.024;7.540;2023-07-29T06:35:38;26.15;;;23.85;;
15454;SDS011;21057;51.024;7.540;2023-07-29T06:38:05;26.05;;;23.83;;
15454;SDS011;21057;51.024;7.540;2023-07-29T06:40:32;24.92;;;22.92;;
15454;SDS011;21057;51.024;7.540;2023-07-29T06:42:58;26.23;;;23.95;;
15454;SDS011;21057;51.024;7.540;2023-07-29T06:45:25;25.90;;;23.65;;
15454;SDS011;21057;51.024;7.540;2023-07-29T06:47:54;24.77;;;22.80;;
15454;SDS011;21057;51.024;7.540;2023-07-29T06:50:20;24.60;;;22.67;;
15454;SDS011;21057;51.024;7.540;2023-07-29T06:52:47;25.58;;;23.63;;
15454;SDS011;21057;51.024;7.540;2023-07-29T06:55:14;25.08;;;23.27;;
15454;SDS011;21057;51.024;7.540;2023-07-29T06:57:41;25.42;;;23.52;;
15454;SDS011;21057;51.024;7.540;2023-07-29T07:00:08;25.98;;;23.98;;
15454;SDS011;21057;51.024;7.540;2023-07-29T07:02:35;24.33;;;22.42;;
15454;SDS011;21057;51.024;7.540;2023-07-29T07:05:04;23.58;;;21.98;;
15454;SDS011;21057;51.024;7.540;2023-07-29T07:07:31;23.10;;;21.40;;
15454;SDS011;21057;51.024;7.540;2023-07-29T07:09:58;24.55;;;22.73;;
15454;SDS011;21057;51.024;7.540;2023-07-29T07:12:25;23.35;;;21.73;;
15454;SDS011;21057;51.024;7.540;2023-07-29T07:14:52;22.75;;;21.25;;
15454;SDS011;21057;51.024;7.540;2023-07-29T07:17:19;23.08;;;21.38;;
15454;SDS011;21057;51.024;7.540;2023-07-29T07:19:46;22.35;;;20.73;;
15454;SDS011;21057;51.024;7.540;2023-07-29T07:22:14;23.52;;;21.88;;
15454;SDS011;21057;51.024;7.540;2023-07-29T07:24:41;22.58;;;21.08;;
15454;SDS011;21057;51.024;7.540;2023-07-29T07:27:07;22.58;;;20.98;;
15454;SDS011;21057;51.024;7.540;2023-07-29T07:29:34;22.25;;;20.52;;
15454;SDS011;21057;51.024;7.540;2023-07-29T07:32:01;21.20;;;19.75;;
15454;SDS011;21057;51.024;7.540;2023-07-29T07:34:28;21.65;;;20.25;;
15454;SDS011;21057;51.024;7.540;2023-07-29T07:36:55;20.95;;;19.45;;
15454;SDS011;21057;51.024;7.540;2023-07-29T07:39:23;21.52;;;20.02;;
15454;SDS011;21057;51.024;7.540;2023-07-29T07:41:50;22.55;;;20.95;;
15454;SDS011;21057;51.024;7.540;2023-07-29T07:44:17;21.27;;;19.85;;
15454;SDS011;21057;51.024;7.540;2023-07-29T07:46:44;21.95;;;20.25;;
15454;SDS011;21057;51.024;7.540;2023-07-29T07:49:11;22.05;;;20.65;;
15454;SDS011;21057;51.024;7.540;2023-07-29T07:51:38;20.90;;;19.30;;
15454;SDS011;21057;51.024;7.540;2023-07-29T07:54:05;21.02;;;19.48;;
15454;SDS011;21057;51.024;7.540;2023-07-29T07:56:33;19.38;;;18.17;;
15454;SDS011;21057;51.024;7.540;2023-07-29T07:59:00;19.75;;;18.45;;
15454;SDS011;21057;51.024;7.540;2023-07-29T08:01:27;19.30;;;18.05;;
15454;SDS011;21057;51.024;7.540;2023-07-29T08:03:54;18.33;;;17.08;;
15454;SDS011;21057;51.024;7.540;2023-07-29T08:06:20;17.98;;;16.88;;
15454;SDS011;21057;51.024;7.540;2023-07-29T08:08:47;18.13;;;17.05;;
15454;SDS011;21057;51.024;7.540;2023-07-29T08:11:14;18.25;;;17.13;;
15454;SDS011;21057;51.024;7.540;2023-07-29T08:13:42;18.08;;;16.90;;
15454;SDS011;21057;51.024;7.540;2023-07-29T08:16:09;17.75;;;16.75;;
15454;SDS011;21057;51.024;7.540;2023-07-29T08:18:36;17.48;;;16.48;;
15454;SDS011;21057;51.024;7.540;2023-07-29T08:21:03;17.95;;;16.95;;
15454;SDS011;21057;51.024;7.540;2023-07-29T08:23:30;17.48;;;16.48;;
15454;SDS011;21057;51.024;7.540;2023-07-29T08:25:58;17.63;;;16.63;;
15454;SDS011;21057;51.024;7.540;2023-07-29T08:28:27;17.27;;;16.17;;
15454;SDS011;21057;51.024;7.540;2023-07-29T08:30:56;17.02;;;15.93;;
15454;SDS011;21057;51.024;7.540;2023-07-29T08:33:23;16.85;;;15.88;;
15454;SDS011;21057;51.024;7.540;2023-07-29T08:35:50;17.95;;;16.52;;
15454;SDS011;21057;51.024;7.540;2023-07-29T08:38:17;17.38;;;16.38;;
15454;SDS011;21057;51.024;7.540;2023-07-29T08:40:45;17.67;;;16.67;;
15454;SDS011;21057;51.024;7.540;2023-07-29T08:43:16;17.25;;;16.25;;
15454;SDS011;21057;51.024;7.540;2023-07-29T08:45:46;17.77;;;16.77;;
15454;SDS011;21057;51.024;7.540;2023-07-29T08:48:13;17.88;;;16.88;;
15454;SDS011;21057;51.024;7.540;2023-07-29T08:50:45;17.65;;;16.48;;
15454;SDS011;21057;51.024;7.540;2023-07-29T08:53:13;17.90;;;16.80;;
15454;SDS011;21057;51.024;7.540;2023-07-29T08:55:40;17.92;;;16.92;;
15454;SDS011;21057;51.024;7.540;2023-07-29T08:58:07;17.40;;;16.40;;
15454;SDS011;21057;51.024;7.540;2023-07-29T09:00:34;18.33;;;17.23;;
15454;SDS011;21057;51.024;7.540;2023-07-29T09:03:01;17.48;;;16.48;;
15454;SDS011;21057;51.024;7.540;2023-07-29T09:05:34;19.00;;;17.70;;
15454;SDS011;21057;51.024;7.540;2023-07-29T09:08:01;19.33;;;18.17;;
15454;SDS011;21057;51.024;7.540;2023-07-29T09:10:29;17.42;;;16.42;;
15454;SDS011;21057;51.024;7.540;2023-07-29T09:12:55;17.77;;;16.67;;
15454;SDS011;21057;51.024;7.540;2023-07-29T09:15:26;18.73;;;17.63;;
15454;SDS011;21057;51.024;7.540;2023-07-29T09:17:55;18.35;;;17.25;;
15454;SDS011;21057;51.024;7.540;2023-07-29T09:20:23;18.48;;;17.38;;
15454;SDS011;21057;51.024;7.540;2023-07-29T09:22:53;18.00;;;17.00;;
15454;SDS011;21057;51.024;7.540;2023-07-29T09:25:24;18.98;;;17.88;;
15454;SDS011;21057;51.024;7.540;2023-07-29T09:27:51;17.48;;;16.48;;
15454;SDS011;21057;51.024;7.540;2023-07-29T09:30:18;18.27;;;17.20;;
15454;SDS011;21057;51.024;7.540;2023-07-29T09:32:45;18.75;;;17.55;;
15454;SDS011;21057;51.024;7.540;2023-07-29T09:35:12;19.38;;;17.70;;
15454;SDS011;21057;51.024;7.540;2023-07-29T09:37:39;18.98;;;17.77;;
15454;SDS011;21057;51.024;7.540;2023-07-29T09:40:12;18.27;;;17.20;;
15454;SDS011;21057;51.024;7.540;2023-07-29T09:42:47;18.92;;;17.73;;
15454;SDS011;21057;51.024;7.540;2023-07-29T09:45:18;18.55;;;17.35;;
15454;SDS011;21057;51.024;7.540;2023-07-29T09:47:46;18.77;;;17.58;;
15454;SDS011;21057;51.024;7.540;2023-07-29T09:50:14;18.67;;;17.58;;
15454;SDS011;21057;51.024;7.540;2023-07-29T09:52:41;19.25;;;18.13;;
15454;SDS011;21057;51.024;7.540;2023-07-29T09:55:10;18.73;;;17.42;;
15454;SDS011;21057;51.024;7.540;2023-07-29T09:57:39;18.85;;;17.75;;
15454;SDS011;21057;51.024;7.540;2023-07-29T10:00:07;18.77;;;17.67;;
15454;SDS011;21057;51.024;7.540;2023-07-29T10:02:37;18.13;;;17.05;;
15454;SDS011;21057;51.024;7.540;2023-07-29T10:05:05;19.15;;;17.85;;
15454;SDS011;21057;51.024;7.540;2023-07-29T10:07:34;19.30;;;18.10;;
15454;SDS011;21057;51.024;7.540;2023-07-29T10:10:02;18.40;;;17.20;;
15454;SDS011;21057;51.024;7.540;2023-07-29T10:12:33;18.30;;;17.15;;
15454;SDS011;21057;51.024;7.540;2023-07-29T10:15:02;18.15;;;17.05;;
15454;SDS011;21057;51.024;7.540;2023-07-29T10:17:31;18.55;;;17.45;;
15454;SDS011;21057;51.024;7.540;2023-07-29T10:20:00;18.65;;;17.55;;
15454;SDS011;21057;51.024;7.540;2023-07-29T10:22:33;19.58;;;17.83;;
15454;SDS011;21057;51.024;7.540;2023-07-29T10:25:03;19.38;;;18.20;;
15454;SDS011;21057;51.024;7.540;2023-07-29T10:27:35;18.98;;;17.88;;
15454;SDS011;21057;51.024;7.540;2023-07-29T10:30:08;18.08;;;17.02;;
15454;SDS011;21057;51.024;7.540;2023-07-29T10:32:37;18.42;;;17.33;;
15454;SDS011;21057;51.024;7.540;2023-07-29T10:35:05;18.25;;;17.15;;
15454;SDS011;21057;51.024;7.540;2023-07-29T10:37:33;18.60;;;17.38;;
15454;SDS011;21057;51.024;7.540;2023-07-29T10:40:00;19.15;;;17.95;;
15454;SDS011;21057;51.024;7.540;2023-07-29T10:42:27;18.70;;;17.60;;
15454;SDS011;21057;51.024;7.540;2023-07-29T10:44:55;18.48;;;17.38;;
15454;SDS011;21057;51.024;7.540;2023-07-29T10:47:22;19.25;;;18.08;;
15454;SDS011;21057;51.024;7.540;2023-07-29T10:49:51;19.23;;;18.13;;
15454;SDS011;21057;51.024;7.540;2023-07-29T10:52:39;18.15;;;17.08;;
15454;SDS011;21057;51.024;7.540;2023-07-29T10:57:51;19.83;;;18.60;;
15454;SDS011;21057;51.024;7.540;2023-07-29T11:00:20;20.00;;;18.88;;
15454;SDS011;21057;51.024;7.540;2023-07-29T11:02:56;19.02;;;17.92;;
15454;SDS011;21057;51.024;7.540;2023-07-29T11:05:25;19.48;;;18.30;;
15454;SDS011;21057;51.024;7.540;2023-07-29T11:07:52;19.70;;;18.52;;
15454;SDS011;21057;51.024;7.540;2023-07-29T11:10:19;19.50;;;18.40;;
15454;SDS011;21057;51.024;7.540;2023-07-29T11:12:48;20.17;;;18.90;;
15454;SDS011;21057;51.024;7.540;2023-07-29T11:15:22;20.00;;;18.80;;
15454;SDS011;21057;51.024;7.540;2023-07-29T11:17:50;19.75;;;18.55;;
15454;SDS011;21057;51.024;7.540;2023-07-29T11:20:19;19.02;;;17.92;;
15454;SDS011;21057;51.024;7.540;2023-07-29T11:22:47;19.42;;;18.23;;
15454;SDS011;21057;51.024;7.540;2023-07-29T11:25:15;19.45;;;18.17;;
15454;SDS011;21057;51.024;7.540;2023-07-29T11:27:43;18.50;;;17.40;;
15454;SDS011;21057;51.024;7.540;2023-07-29T11:30:11;18.77;;;17.67;;
15454;SDS011;21057;51.024;7.540;2023-07-29T11:32:40;18.85;;;17.85;;
15454;SDS011;21057;51.024;7.540;2023-07-29T11:35:09;18.05;;;17.05;;
15454;SDS011;21057;51.024;7.540;2023-07-29T11:37:38;19.23;;;18.17;;
15454;SDS011;21057;51.024;7.540;2023-07-29T11:40:06;19.63;;;18.33;;
15454;SDS011;21057;51.024;7.540;2023-07-29T11:42:35;19.10;;;18.00;;
15454;SDS011;21057;51.024;7.540;2023-07-29T11:45:03;20.83;;;19.52;;
15454;SDS011;21057;51.024;7.540;2023-07-29T11:47:31;19.02;;;17.92;;
15454;SDS011;21057;51.024;7.540;2023-07-29T11:50:03;18.90;;;17.25;;
15454;SDS011;21057;51.024;7.540;2023-07-29T11:52:31;18.70;;;17.60;;
15454;SDS011;21057;51.024;7.540;2023-07-29T11:54:59;19.13;;;17.73;;
15454;SDS011;21057;51.024;7.540;2023-07-29T11:57:27;19.38;;;18.27;;
15454;SDS011;21057;51.024;7.540;2023-07-29T11:59:54;19.23;;;18.13;;
15454;SDS011;21057;51.024;7.540;2023-07-29T12:02:21;19.17;;;18.05;;
15454;SDS011;21057;51.024;7.540;2023-07-29T12:04:50;19.58;;;18.23;;
15454;SDS011;21057;51.024;7.540;2023-07-29T12:07:19;19.35;;;18.00;;
15454;SDS011;21057;51.024;7.540;2023-07-29T12:09:46;18.90;;;17.80;;
15454;SDS011;21057;51.024;7.540;2023-07-29T12:12:13;19.02;;;17.88;;
15454;SDS011;21057;51.024;7.540;2023-07-29T12:14:43;18.73;;;17.67;;
15454;SDS011;21057;51.024;7.540;2023-07-29T12:17:11;19.35;;;18.25;;
15454;SDS011;21057;51.024;7.540;2023-07-29T12:19:39;21.20;;;19.90;;
15454;SDS011;21057;51.024;7.540;2023-07-29T12:22:07;19.52;;;18.33;;
15454;SDS011;21057;51.024;7.540;2023-07-29T12:24:38;19.67;;;18.55;;
15454;SDS011;21057;51.024;7.540;2023-07-29T12:27:09;20.20;;;18.98;;
15454;SDS011;21057;51.024;7.540;2023-07-29T12:29:39;20.83;;;19.63;;
15454;SDS011;21057;51.024;7.540;2023-07-29T12:32:08;18.70;;;17.65;;
15454;SDS011;21057;51.024;7.540;2023-07-29T12:34:35;18.77;;;17.75;;
15454;SDS011;21057;51.024;7.540;2023-07-29T12:37:04;19.15;;;18.08;;
15454;SDS011;21057;51.024;7.540;2023-07-29T12:39:32;19.23;;;18.10;;
15454;SDS011;21057;51.024;7.540;2023-07-29T12:42:02;20.50;;;19.30;;
15454;SDS011;21057;51.024;7.540;2023-07-29T12:44:30;20.42;;;19.23;;
15454;SDS011;21057;51.024;7.540;2023-07-29T12:46:58;18.20;;;17.10;;
15454;SDS011;21057;51.024;7.540;2023-07-29T12:49:26;17.67;;;16.67;;
15454;SDS011;21057;51.024;7.540;2023-07-29T12:51:54;17.73;;;16.63;;
15454;SDS011;21057;51.024;7.540;2023-07-29T12:54:21;17.80;;;16.80;;
15454;SDS011;21057;51.024;7.540;2023-07-29T12:56:48;18.17;;;17.13;;
15454;SDS011;21057;51.024;7.540;2023-07-29T12:59:16;19.17;;;18.08;;
15454;SDS011;21057;51.024;7.540;2023-07-29T13:01:43;18.45;;;17.38;;
15454;SDS011;21057;51.024;7.540;2023-07-29T13:04:10;19.05;;;17.58;;
15454;SDS011;21057;51.024;7.540;2023-07-29T13:06:37;19.35;;;18.17;;
15454;SDS011;21057;51.024;7.540;2023-07-29T13:09:04;17.58;;;16.52;;
15454;SDS011;21057;51.024;7.540;2023-07-29T13:11:31;18.88;;;17.77;;
15454;SDS011;21057;51.024;7.540;2023-07-29T13:13:58;17.58;;;16.58;;
15454;SDS011;21057;51.024;7.540;2023-07-29T13:16:27;18.55;;;17.38;;
15454;SDS011;21057;51.024;7.540;2023-07-29T13:18:54;18.40;;;17.30;;
15454;SDS011;21057;51.024;7.540;2023-07-29T13:21:21;17.92;;;16.92;;
15454;SDS011;21057;51.024;7.540;2023-07-29T13:23:48;17.90;;;16.90;;
15454;SDS011;21057;51.024;7.540;2023-07-29T13:26:14;18.00;;;17.00;;
15454;SDS011;21057;51.024;7.540;2023-07-29T13:28:42;18.60;;;17.60;;
15454;SDS011;21057;51.024;7.540;2023-07-29T13:31:08;18.83;;;17.73;;
15454;SDS011;21057;51.024;7.540;2023-07-29T13:33:36;18.08;;;17.08;;
15454;SDS011;21057;51.024;7.540;2023-07-29T13:36:03;17.30;;;16.30;;
15454;SDS011;21057;51.024;7.540;2023-07-29T13:38:31;18.40;;;17.40;;
15454;SDS011;21057;51.024;7.540;2023-07-29T13:40:58;19.02;;;17.92;;
15454;SDS011;21057;51.024;7.540;2023-07-29T13:43:24;17.98;;;16.98;;
15454;SDS011;21057;51.024;7.540;2023-07-29T13:45:51;18.42;;;17.42;;
15454;SDS011;21057;51.024;7.540;2023-07-29T13:48:18;18.67;;;17.67;;
15454;SDS011;21057;51.024;7.540;2023-07-29T13:50:46;17.60;;;16.60;;
15454;SDS011;21057;51.024;7.540;2023-07-29T13:53:13;18.05;;;17.05;;
15454;SDS011;21057;51.024;7.540;2023-07-29T13:55:40;18.02;;;16.83;;
15454;SDS011;21057;51.024;7.540;2023-07-29T13:58:07;18.00;;;16.90;;
15454;SDS011;21057;51.024;7.540;2023-07-29T14:00:34;18.25;;;17.15;;
15454;SDS011;21057;51.024;7.540;2023-07-29T14:03:00;17.38;;;16.40;;
15454;SDS011;21057;51.024;7.540;2023-07-29T14:05:27;16.90;;;16.00;;
15454;SDS011;21057;51.024;7.540;2023-07-29T14:07:55;16.20;;;15.30;;
15454;SDS011;21057;51.024;7.540;2023-07-29T14:10:22;17.13;;;16.13;;
15454;SDS011;21057;51.024;7.540;2023-07-29T14:12:50;16.38;;;15.48;;
15454;SDS011;21057;51.024;7.540;2023-07-29T14:15:16;16.33;;;15.43;;
15454;SDS011;21057;51.024;7.540;2023-07-29T14:17:43;16.63;;;15.63;;
15454;SDS011;21057;51.024;7.540;2023-07-29T14:20:11;16.02;;;15.13;;
15454;SDS011;21057;51.024;7.540;2023-07-29T14:22:38;16.25;;;15.35;;
15454;SDS011;21057;51.024;7.540;2023-07-29T14:25:07;16.17;;;15.27;;
15454;SDS011;21057;51.024;7.540;2023-07-29T14:27:34;16.73;;;15.82;;